Time;durP1;ratioP1;P1;durP2;ratioP2;P2;SDS_P1;SDS_P2;PMS_P1;PMS_P2;Temp;Humidity;BMP_temperature;BMP_pressure;BME280_temperature;BME280_humidity;BME280_pressure;Samples;Min_cycle;Max_cycle;Signal;HPM_P1;HPM_P2
2022/08/03 00:01:03;;;;;;;;;;;;;;;29.41;37.79;100803.39;105215;1300;61244;-79
2022/08/03 00:03:29;;;;;;;;;;;;;;;29.40;37.95;100808.69;105271;1299;61259;-79
2022/08/03 00:05:54;;;;;;;;;;;;;;;29.40;37.87;100806.35;105333;1300;61281;-79
2022/08/03 00:08:19;;;;;;;;;;;;;;;29.40;37.83;100803.63;105288;1300;62040;-79
2022/08/03 00:10:46;;;;;;;;;;;;;;;29.40;37.72;100799.67;105254;1300;61272;-79
2022/08/03 00:13:12;;;;;;;;;;;;;;;29.40;37.84;100799.84;105321;1299;61364;-79
2022/08/03 00:15:41;;;;;;;;;;;;;;;29.40;38.00;100802.56;105313;1298;75648;-79
2022/08/03 00:18:07;;;;;;;;;;;;;;;29.40;37.90;100801.14;105219;1300;61867;-79
2022/08/03 00:20:32;;;;;;;;;;;;;;;29.39;37.91;100803.54;105303;1298;61393;-79
2022/08/03 00:22:58;;;;;;;;;;;;;;;29.39;38.06;100805.17;105288;1300;61384;-79
2022/08/03 00:25:23;;;;;;;;;;;;;;;29.39;37.80;100810.67;105305;1300;61265;-79
2022/08/03 00:27:49;;;;;;;;;;;;;;;29.39;37.83;100812.98;105302;1300;61224;-79
2022/08/03 00:30:14;;;;;;;;;;;;;;;29.39;37.84;100815.57;105318;1299;61443;-79
2022/08/03 00:32:39;;;;;;;;;;;;;;;29.39;37.85;100814.28;105249;1300;61282;-79
2022/08/03 00:35:05;;;;;;;;;;;;;;;29.39;37.94;100816.66;105297;1300;61195;-79
2022/08/03 00:37:31;;;;;;;;;;;;;;;29.39;37.99;100817.20;105238;1300;61364;-79
2022/08/03 00:39:57;;;;;;;;;;;;;;;29.38;37.93;100820.00;105305;1299;61417;-79
2022/08/03 00:42:22;;;;;;;;;;;;;;;29.38;37.98;100818.91;105295;1300;61249;-79
2022/08/03 00:44:48;;;;;;;;;;;;;;;29.38;37.91;100818.91;105314;1298;61419;-79
2022/08/03 00:47:13;;;;;;;;;;;;;;;29.38;38.20;100819.14;105304;1297;61288;-79
2022/08/03 00:49:39;;;;;;;;;;;;;;;29.38;37.83;100822.17;105355;1299;61284;-79
2022/08/03 00:52:04;;;;;;;;;;;;;;;29.37;37.99;100823.49;105303;1300;61287;-79
2022/08/03 00:54:30;;;;;;;;;;;;;;;29.37;37.89;100827.67;105296;1297;61275;-79
2022/08/03 00:56:55;;;;;;;;;;;;;;;29.38;37.97;100827.64;105298;1299;61316;-79
2022/08/03 00:59:21;;;;;;;;;;;;;;;29.37;38.02;100830.39;105273;1300;61374;-78
2022/08/03 01:01:46;;;;;;;;;;;;;;;29.37;38.06;100831.35;105235;1299;61468;-78
2022/08/03 01:04:12;;;;;;;;;;;;;;;29.37;38.07;100832.44;105377;1298;61329;-78
2022/08/03 01:06:58;;;;;;;;;;;;;;;29.37;38.19;100833.19;105293;1299;61224;-78
2022/08/03 01:09:45;;;;;;;;;;;;;;;29.36;37.98;100825.98;105251;1300;73963;-79
2022/08/03 01:12:17;;;;;;;;;;;;;;;29.37;38.17;100824.85;105309;1300;74726;-79
2022/08/03 01:14:45;;;;;;;;;;;;;;;29.36;38.10;100823.45;105330;1300;61332;-79
2022/08/03 01:17:18;;;;;;;;;;;;;;;29.36;38.10;100822.36;105183;1299;61937;-78
2022/08/03 01:19:53;;;;;;;;;;;;;;;29.36;38.14;100821.09;105136;1300;73925;-78
2022/08/03 01:22:33;;;;;;;;;;;;;;;29.36;38.21;100817.48;105255;1300;74676;-80
2022/08/03 01:25:09;;;;;;;;;;;;;;;29.36;38.33;100818.06;105250;1298;61279;-80
2022/08/03 01:27:44;;;;;;;;;;;;;;;29.36;38.31;100820.77;105306;1300;61540;-81
2022/08/03 01:30:10;;;;;;;;;;;;;;;29.35;38.19;100823.52;105301;1300;72853;-81
2022/08/03 01:32:59;;;;;;;;;;;;;;;29.36;38.28;100821.48;105315;1299;61243;-81
2022/08/03 01:35:26;;;;;;;;;;;;;;;29.36;38.23;100821.35;105253;1300;61262;-81
2022/08/03 01:37:55;;;;;;;;;;;;;;;29.36;38.28;100817.54;105312;1299;61931;-81
2022/08/03 01:40:20;;;;;;;;;;;;;;;29.36;38.39;100818.42;105212;1300;73816;-81
2022/08/03 01:42:45;;;;;;;;;;;;;;;29.35;38.37;100817.02;105116;1300;61262;-81
2022/08/03 01:45:12;;;;;;;;;;;;;;;29.35;38.34;100817.41;105387;1300;61258;-81
2022/08/03 01:47:39;;;;;;;;;;;;;;;29.35;38.32;100817.20;105296;1300;61160;-81
2022/08/03 01:50:04;;;;;;;;;;;;;;;29.35;38.29;100817.98;105291;1300;61298;-81
2022/08/03 01:52:30;;;;;;;;;;;;;;;29.35;38.11;100817.98;105363;1300;61966;-81
2022/08/03 01:54:56;;;;;;;;;;;;;;;29.35;38.27;100819.10;105309;1299;61455;-81
2022/08/03 01:57:21;;;;;;;;;;;;;;;29.34;38.28;100818.05;105396;1300;61259;-81
2022/08/03 01:59:47;;;;;;;;;;;;;;;29.34;38.29;100818.92;105285;1300;61377;-81
2022/08/03 02:02:13;;;;;;;;;;;;;;;29.35;38.29;100821.10;105314;1300;61290;-81
2022/08/03 02:04:39;;;;;;;;;;;;;;;29.34;38.46;100819.13;105317;1300;61285;-81
2022/08/03 02:07:04;;;;;;;;;;;;;;;29.34;38.62;100813.59;105334;1299;61239;-81
2022/08/03 02:09:30;;;;;;;;;;;;;;;29.33;38.60;100809.83;105364;1299;61329;-81
2022/08/03 02:11:55;;;;;;;;;;;;;;;29.33;38.24;100806.00;105363;1300;61381;-79
2022/08/03 02:14:21;;;;;;;;;;;;;;;29.33;38.27;100806.82;105177;1300;72662;-79
2022/08/03 02:16:46;;;;;;;;;;;;;;;29.32;38.19;100806.48;105284;1300;61340;-79
2022/08/03 02:19:12;;;;;;;;;;;;;;;29.33;38.44;100807.34;105291;1300;61285;-80
2022/08/03 02:21:37;;;;;;;;;;;;;;;29.33;38.42;100807.70;105287;1297;61388;-80
2022/08/03 02:24:04;;;;;;;;;;;;;;;29.32;38.56;100808.32;105380;1300;61261;-80
2022/08/03 02:26:30;;;;;;;;;;;;;;;29.32;38.51;100808.73;105351;1300;61296;-80
2022/08/03 02:28:56;;;;;;;;;;;;;;;29.31;38.35;100809.86;105292;1300;74753;-80
2022/08/03 02:31:23;;;;;;;;;;;;;;;29.31;38.54;100810.05;105311;1300;61190;-80
2022/08/03 02:33:52;;;;;;;;;;;;;;;29.31;38.50;100804.23;105365;1299;61161;-80
2022/08/03 02:36:24;;;;;;;;;;;;;;;29.31;38.45;100803.55;105346;1300;73866;-80
2022/08/03 02:38:51;;;;;;;;;;;;;;;29.31;38.77;100803.77;105258;1300;76088;-80
2022/08/03 02:41:17;;;;;;;;;;;;;;;29.30;38.67;100802.87;105350;1299;61340;-80
2022/08/03 02:43:44;;;;;;;;;;;;;;;29.31;38.55;100809.94;105340;1300;60022;-80
2022/08/03 02:46:09;;;;;;;;;;;;;;;29.30;38.55;100814.49;105030;1300;74896;-80
2022/08/03 02:48:35;;;;;;;;;;;;;;;29.30;38.60;100813.41;105279;1300;61425;-80
2022/08/03 02:51:00;;;;;;;;;;;;;;;29.30;38.67;100815.62;105272;1300;61268;-80
2022/08/03 02:53:26;;;;;;;;;;;;;;;29.30;38.75;100819.09;105345;1300;61237;-80
2022/08/03 02:55:52;;;;;;;;;;;;;;;29.30;38.60;100814.20;105304;1300;61745;-80
2022/08/03 02:58:20;;;;;;;;;;;;;;;29.30;38.80;100816.95;105437;1299;61271;-80
2022/08/03 03:00:45;;;;;;;;;;;;;;;29.29;38.76;100813.89;105009;1300;74700;-80
2022/08/03 03:03:11;;;;;;;;;;;;;;;29.29;38.78;100816.29;105268;1299;61367;-80
2022/08/03 03:05:36;;;;;;;;;;;;;;;29.29;38.74;100814.64;105310;1300;61259;-80
2022/08/03 03:08:02;;;;;;;;;;;;;;;29.29;38.85;100817.18;105324;1300;61348;-81
2022/08/03 03:10:28;;;;;;;;;;;;;;;29.29;38.55;100819.77;105248;1300;61159;-78
2022/08/03 03:12:57;;;;;;;;;;;;;;;29.29;38.79;100825.19;105268;1300;61769;-78
2022/08/03 03:15:22;;;;;;;;;;;;;;;29.28;38.73;100826.14;105269;1300;61159;-78
2022/08/03 03:17:48;;;;;;;;;;;;;;;29.28;38.88;100827.02;105221;1299;61234;-78
2022/08/03 03:20:14;;;;;;;;;;;;;;;29.28;38.75;100831.23;105332;1300;61147;-79
2022/08/03 03:22:39;;;;;;;;;;;;;;;29.28;38.85;100835.60;105287;1299;61438;-79
2022/08/03 03:25:05;;;;;;;;;;;;;;;29.28;38.94;100832.52;105181;1300;61418;-79
2022/08/03 03:27:30;;;;;;;;;;;;;;;29.27;38.85;100832.02;105267;1299;61339;-79
2022/08/03 03:29:56;;;;;;;;;;;;;;;29.28;38.82;100830.91;105238;1300;62540;-79
2022/08/03 03:32:21;;;;;;;;;;;;;;;29.27;39.03;100836.58;105382;1298;61281;-79
2022/08/03 03:34:48;;;;;;;;;;;;;;;29.27;38.99;100837.84;105280;1300;61287;-79
2022/08/03 03:37:13;;;;;;;;;;;;;;;29.27;38.87;100840.76;105250;1300;59429;-79
2022/08/03 03:39:38;;;;;;;;;;;;;;;29.26;38.93;100845.14;105315;1300;61252;-79
2022/08/03 03:42:04;;;;;;;;;;;;;;;29.27;38.91;100848.00;105354;1300;61259;-79
2022/08/03 03:44:30;;;;;;;;;;;;;;;29.26;38.87;100852.58;105352;1300;73850;-79
2022/08/03 03:46:58;;;;;;;;;;;;;;;29.27;38.98;100854.70;105302;1299;61377;-79
2022/08/03 03:49:25;;;;;;;;;;;;;;;29.26;38.89;100850.95;105298;1299;61372;-79
2022/08/03 03:51:54;;;;;;;;;;;;;;;29.26;38.93;100853.66;105324;1299;61368;-79
2022/08/03 03:54:20;;;;;;;;;;;;;;;29.26;39.01;100853.11;105318;1299;73291;-79
2022/08/03 03:56:45;;;;;;;;;;;;;;;29.26;38.84;100858.59;105246;1298;62087;-79
2022/08/03 03:59:11;;;;;;;;;;;;;;;29.26;39.07;100858.55;105213;1299;61272;-79
2022/08/03 04:01:37;;;;;;;;;;;;;;;29.26;39.09;100858.92;105280;1299;61377;-79
2022/08/03 04:10:57;;;;;;;;;;;;;;;29.26;39.13;100864.39;105248;1300;61281;-79
2022/08/03 04:12:27;;;;;;;;;;;;;;;29.26;39.08;100866.34;105257;1300;61149;-79
2022/08/03 04:14:53;;;;;;;;;;;;;;;29.26;39.12;100868.58;105264;1300;61291;-79
2022/08/03 04:17:18;;;;;;;;;;;;;;;29.23;38.97;100871.26;105223;1300;61369;-79
2022/08/03 04:19:46;;;;;;;;;;;;;;;29.20;39.00;100871.14;105247;1299;61304;-79
2022/08/03 04:22:12;;;;;;;;;;;;;;;29.17;39.05;100875.64;105149;1300;61250;-79
2022/08/03 04:24:48;;;;;;;;;;;;;;;29.15;39.07;100876.28;105352;1299;61304;-79
2022/08/03 04:27:15;;;;;;;;;;;;;;;29.11;39.07;100878.96;105255;1298;76410;-79
2022/08/03 04:29:42;;;;;;;;;;;;;;;29.08;39.09;100878.55;105187;1299;61477;-79
2022/08/03 04:32:08;;;;;;;;;;;;;;;29.05;39.16;100878.66;105287;1299;62635;-79
2022/08/03 04:34:33;;;;;;;;;;;;;;;29.03;39.09;100881.79;105247;1299;61238;-79
2022/08/03 04:37:00;;;;;;;;;;;;;;;29.01;39.26;100885.13;105197;1299;61233;-79
2022/08/03 04:39:27;;;;;;;;;;;;;;;28.99;39.24;100883.46;105234;1298;61295;-79
2022/08/03 04:41:57;;;;;;;;;;;;;;;28.99;39.12;100884.23;105345;1298;62085;-79
2022/08/03 04:44:22;;;;;;;;;;;;;;;28.97;39.21;100883.71;105313;1300;71644;-79
2022/08/03 04:46:48;;;;;;;;;;;;;;;28.96;39.18;100885.05;105255;1300;61275;-79
2022/08/03 04:49:14;;;;;;;;;;;;;;;28.96;39.12;100884.58;105303;1299;61274;-79
2022/08/03 04:51:39;;;;;;;;;;;;;;;28.96;38.93;100886.58;105302;1300;61416;-79
2022/08/03 04:54:06;;;;;;;;;;;;;;;28.96;39.05;100883.11;105228;1300;61263;-79
2022/08/03 04:56:33;;;;;;;;;;;;;;;28.95;39.14;100886.61;105254;1300;61304;-79
2022/08/03 04:58:59;;;;;;;;;;;;;;;28.96;38.99;100889.61;105227;1298;61271;-79
2022/08/03 05:01:25;;;;;;;;;;;;;;;28.96;39.11;100887.64;105301;1299;61364;-79
2022/08/03 05:03:51;;;;;;;;;;;;;;;28.96;38.85;100885.66;105277;1300;61273;-79
2022/08/03 05:06:16;;;;;;;;;;;;;;;28.96;38.76;100888.35;105145;1300;61262;-79
2022/08/03 05:08:42;;;;;;;;;;;;;;;28.96;38.87;100888.35;105209;1300;61287;-79
2022/08/03 05:11:07;;;;;;;;;;;;;;;28.96;38.92;100885.59;105304;1300;61282;-79
2022/08/03 05:13:33;;;;;;;;;;;;;;;28.97;38.93;100883.95;105310;1300;61268;-79
2022/08/03 05:15:59;;;;;;;;;;;;;;;28.97;39.00;100883.88;105310;1300;61374;-79
2022/08/03 05:18:24;;;;;;;;;;;;;;;28.99;39.02;100887.17;105350;1300;61287;-79
2022/08/03 05:20:50;;;;;;;;;;;;;;;28.98;38.85;100887.92;105270;1298;75926;-79
2022/08/03 05:23:15;;;;;;;;;;;;;;;28.99;39.01;100887.71;105273;1299;61249;-79
2022/08/03 05:25:41;;;;;;;;;;;;;;;28.99;38.92;100889.31;105250;1298;61268;-79
2022/08/03 05:28:07;;;;;;;;;;;;;;;29.00;38.82;100889.42;105277;1300;61311;-79
2022/08/03 05:30:32;;;;;;;;;;;;;;;29.01;38.83;100891.30;105326;1300;61296;-79
2022/08/03 05:32:58;;;;;;;;;;;;;;;29.02;38.48;100896.62;105336;1300;61253;-79
2022/08/03 05:35:25;;;;;;;;;;;;;;;29.03;38.47;100901.78;105334;1300;61242;-79
2022/08/03 05:37:51;;;;;;;;;;;;;;;29.04;38.58;100901.48;105239;1299;61355;-79
2022/08/03 05:40:16;;;;;;;;;;;;;;;29.04;38.41;100899.30;105245;1300;61444;-79
2022/08/03 05:42:42;;;;;;;;;;;;;;;29.04;38.46;100899.10;105252;1299;61917;-79
2022/08/03 05:45:14;;;;;;;;;;;;;;;29.04;38.51;100897.61;105155;1298;61270;-79
2022/08/03 05:47:40;;;;;;;;;;;;;;;29.05;38.45;100899.76;105221;1300;61166;-79
2022/08/03 05:50:06;;;;;;;;;;;;;;;29.06;38.44;100904.73;105229;1300;61354;-79
2022/08/03 05:52:32;;;;;;;;;;;;;;;29.07;38.42;100904.23;105280;1299;61981;-79
2022/08/03 05:54:57;;;;;;;;;;;;;;;29.07;38.20;100904.61;105312;1298;61269;-79
2022/08/03 05:57:24;;;;;;;;;;;;;;;29.08;38.10;100911.56;105218;1300;61244;-79
2022/08/03 05:59:49;;;;;;;;;;;;;;;29.08;38.06;100906.64;105219;1300;61234;-79
2022/08/03 06:02:14;;;;;;;;;;;;;;;29.07;38.11;100907.66;105234;1300;61264;-79
2022/08/03 06:04:40;;;;;;;;;;;;;;;29.05;37.86;100906.04;105295;1299;61281;-79
2022/08/03 06:07:07;;;;;;;;;;;;;;;29.04;37.94;100908.48;105232;1299;61380;-79
2022/08/03 06:09:32;;;;;;;;;;;;;;;29.04;37.79;100910.17;105197;1300;61399;-79
2022/08/03 06:11:57;;;;;;;;;;;;;;;29.05;37.81;100907.56;105214;1300;61266;-79
2022/08/03 06:14:23;;;;;;;;;;;;;;;29.05;37.70;100910.19;105047;1299;61239;-79
2022/08/03 06:16:49;;;;;;;;;;;;;;;29.07;37.76;100909.83;104974;1299;61345;-79
2022/08/03 06:19:14;;;;;;;;;;;;;;;29.08;37.70;100909.73;104857;1298;61160;-79
2022/08/03 06:21:40;;;;;;;;;;;;;;;29.08;37.67;100908.30;105110;1300;61281;-80
2022/08/03 06:24:05;;;;;;;;;;;;;;;29.08;37.67;100907.92;105303;1300;61412;-80
2022/08/03 06:26:31;;;;;;;;;;;;;;;29.09;37.51;100912.84;105188;1300;61255;-79
2022/08/03 06:28:56;;;;;;;;;;;;;;;29.11;37.80;100911.58;105033;1300;392472;-79
2022/08/03 06:31:24;;;;;;;;;;;;;;;29.13;37.33;100915.23;105322;1300;61342;-79
2022/08/03 06:33:50;;;;;;;;;;;;;;;29.15;37.34;100916.32;105296;1300;61394;-79
2022/08/03 06:36:15;;;;;;;;;;;;;;;29.15;37.46;100918.26;105306;1300;61440;-79
2022/08/03 06:38:41;;;;;;;;;;;;;;;29.15;37.15;100919.16;105215;1300;61356;-79
2022/08/03 06:41:06;;;;;;;;;;;;;;;29.15;37.31;100923.30;105171;1299;61280;-79
2022/08/03 06:43:36;;;;;;;;;;;;;;;29.16;37.57;100924.36;105170;1300;61268;-79
2022/08/03 06:46:02;;;;;;;;;;;;;;;29.15;37.24;100921.33;105127;1300;61515;-79
2022/08/03 06:48:27;;;;;;;;;;;;;;;29.13;37.08;100919.35;105003;1300;61992;-80
2022/08/03 06:50:53;;;;;;;;;;;;;;;29.13;37.00;100925.39;105084;1299;61393;-79
2022/08/03 06:53:19;;;;;;;;;;;;;;;29.14;37.04;100926.20;105089;1300;61272;-79
2022/08/03 06:55:45;;;;;;;;;;;;;;;29.14;37.10;100926.77;105192;1299;61256;-80
2022/08/03 06:58:11;;;;;;;;;;;;;;;29.14;37.15;100922.79;105068;1299;61641;-80
2022/08/03 07:00:36;;;;;;;;;;;;;;;29.14;37.03;100917.63;105058;1298;61310;-79
2022/08/03 07:03:02;;;;;;;;;;;;;;;29.15;36.76;100917.52;105024;1300;76276;-80
2022/08/03 07:05:27;;;;;;;;;;;;;;;29.16;37.16;100919.61;105010;1300;60879;-80
2022/08/03 07:07:54;;;;;;;;;;;;;;;29.16;36.87;100920.83;105106;1298;61370;-79
2022/08/03 07:10:19;;;;;;;;;;;;;;;29.16;36.75;100917.64;104997;1299;61262;-80
2022/08/03 07:12:46;;;;;;;;;;;;;;;29.17;36.75;100916.48;105062;1299;61265;-80
2022/08/03 07:15:11;;;;;;;;;;;;;;;29.17;36.88;100917.70;104915;1300;61389;-80
2022/08/03 07:17:37;;;;;;;;;;;;;;;29.18;36.82;100914.91;105036;1300;61455;-80
2022/08/03 07:20:04;;;;;;;;;;;;;;;29.17;36.45;100911.38;104936;1300;61237;-80
2022/08/03 07:22:29;;;;;;;;;;;;;;;29.14;36.45;100911.49;104587;1300;72216;-80
2022/08/03 07:24:55;;;;;;;;;;;;;;;29.09;36.48;100908.52;105049;1299;61246;-80
2022/08/03 07:27:21;;;;;;;;;;;;;;;29.05;36.37;100910.25;105091;1300;61279;-80
2022/08/03 07:29:46;;;;;;;;;;;;;;;29.03;36.41;100907.23;105113;1299;61232;-80
2022/08/03 07:32:12;;;;;;;;;;;;;;;28.99;36.25;100911.95;105035;1299;61274;-80
2022/08/03 07:34:37;;;;;;;;;;;;;;;28.92;36.08;100913.58;105051;1300;61448;-79
2022/08/03 07:37:03;;;;;;;;;;;;;;;28.92;36.06;100907.04;105242;1299;61956;-79
2022/08/03 07:39:28;;;;;;;;;;;;;;;28.95;35.95;100910.90;104966;1300;61372;-79
2022/08/03 07:41:54;;;;;;;;;;;;;;;28.98;36.04;100905.71;105195;1300;61258;-79
2022/08/03 07:44:20;;;;;;;;;;;;;;;29.01;36.02;100905.21;105139;1299;61300;-79
2022/08/03 07:46:46;;;;;;;;;;;;;;;29.04;36.08;100903.08;105066;1298;61255;-79
2022/08/03 07:49:11;;;;;;;;;;;;;;;29.06;36.06;100909.59;104922;1300;74481;-79
2022/08/03 07:51:37;;;;;;;;;;;;;;;29.09;36.15;100904.20;105021;1298;61407;-79
2022/08/03 07:54:03;;;;;;;;;;;;;;;29.12;35.95;100912.27;105147;1300;61329;-80
2022/08/03 07:56:29;;;;;;;;;;;;;;;29.14;36.02;100907.49;105206;1300;61329;-79
2022/08/03 07:58:55;;;;;;;;;;;;;;;29.16;36.16;100906.21;105130;1299;61265;-80
2022/08/03 08:01:21;;;;;;;;;;;;;;;29.18;36.15;100913.84;105038;1300;61310;-80
2022/08/03 08:03:46;;;;;;;;;;;;;;;29.19;36.01;100913.49;105155;1299;61285;-79
2022/08/03 08:06:12;;;;;;;;;;;;;;;29.20;36.19;100914.63;105244;1300;61598;-79
2022/08/03 08:08:38;;;;;;;;;;;;;;;29.22;35.99;100918.10;105196;1300;62133;-79
2022/08/03 08:11:03;;;;;;;;;;;;;;;29.23;36.00;100914.75;105222;1297;61265;-79
2022/08/03 08:13:29;;;;;;;;;;;;;;;29.24;35.99;100909.04;105207;1298;61274;-79
2022/08/03 08:15:54;;;;;;;;;;;;;;;29.23;36.18;100914.64;105299;1297;61156;-79
2022/08/03 08:18:20;;;;;;;;;;;;;;;29.24;35.93;100909.21;105340;1300;61356;-79
2022/08/03 08:20:45;;;;;;;;;;;;;;;29.24;36.25;100915.50;105174;1300;61307;-79
2022/08/03 08:23:11;;;;;;;;;;;;;;;29.25;36.01;100911.75;105158;1299;61269;-79
2022/08/03 08:25:36;;;;;;;;;;;;;;;29.25;35.89;100914.35;105196;1300;61268;-79
2022/08/03 08:28:03;;;;;;;;;;;;;;;29.24;35.98;100908.74;105319;1299;61261;-79
2022/08/03 08:30:29;;;;;;;;;;;;;;;29.25;36.03;100908.31;104992;1299;61260;-79
2022/08/03 08:32:54;;;;;;;;;;;;;;;29.26;35.94;100906.64;105658;1299;61846;-79
2022/08/03 08:35:20;;;;;;;;;;;;;;;29.27;35.91;100902.02;104898;1300;75489;-80
2022/08/03 08:37:46;;;;;;;;;;;;;;;29.28;36.04;100902.84;104965;1299;61590;-80
2022/08/03 08:40:14;;;;;;;;;;;;;;;29.29;35.99;100899.48;104951;1299;61420;-80
2022/08/03 08:42:40;;;;;;;;;;;;;;;29.30;35.98;100898.82;105023;1298;71843;-79
2022/08/03 08:45:07;;;;;;;;;;;;;;;29.30;36.00;100897.69;105166;1300;61303;-79
2022/08/03 08:47:33;;;;;;;;;;;;;;;29.31;35.66;100897.59;105001;1300;61760;-79
2022/08/03 08:49:58;;;;;;;;;;;;;;;29.31;35.88;100897.83;105038;1300;61300;-79
2022/08/03 08:52:25;;;;;;;;;;;;;;;29.31;35.85;100899.77;105120;1299;61341;-79
2022/08/03 08:54:51;;;;;;;;;;;;;;;29.31;35.70;100898.73;105225;1298;61489;-79
2022/08/03 08:57:16;;;;;;;;;;;;;;;29.31;35.76;100900.67;105141;1300;60042;-79
2022/08/03 08:59:42;;;;;;;;;;;;;;;29.32;35.72;100899.20;105205;1300;61243;-79
2022/08/03 09:02:08;;;;;;;;;;;;;;;29.32;35.74;100900.76;105303;1300;61387;-80
2022/08/03 09:04:34;;;;;;;;;;;;;;;29.32;35.88;100898.58;105136;1300;72551;-80
2022/08/03 09:07:00;;;;;;;;;;;;;;;29.32;35.66;100893.01;105221;1298;61348;-80
2022/08/03 09:09:26;;;;;;;;;;;;;;;29.31;35.72;100897.57;105216;1300;61239;-79
2022/08/03 09:11:51;;;;;;;;;;;;;;;29.32;35.59;100896.06;105194;1300;61338;-79
2022/08/03 09:14:16;;;;;;;;;;;;;;;29.32;35.61;100897.91;105164;1300;61339;-79
2022/08/03 09:16:56;;;;;;;;;;;;;;;29.32;35.69;100891.38;105347;1298;61316;-79
2022/08/03 09:19:23;;;;;;;;;;;;;;;29.32;35.83;100885.56;105033;1300;74798;-79
2022/08/03 09:21:58;;;;;;;;;;;;;;;29.32;35.85;100883.36;105270;1300;61133;-79
2022/08/03 09:24:23;;;;;;;;;;;;;;;29.32;35.68;100891.34;105273;1300;61402;-79
2022/08/03 09:26:49;;;;;;;;;;;;;;;29.32;35.85;100888.05;105230;1300;61453;-79
2022/08/03 09:29:14;;;;;;;;;;;;;;;29.32;35.82;100884.40;105260;1299;61656;-79
2022/08/03 09:31:43;;;;;;;;;;;;;;;29.33;35.89;100887.09;105250;1300;61910;-79
2022/08/03 09:34:10;;;;;;;;;;;;;;;29.33;35.65;100891.59;105160;1300;61304;-79
2022/08/03 09:36:39;;;;;;;;;;;;;;;29.33;35.91;100885.98;105196;1300;61211;-79
2022/08/03 09:39:12;;;;;;;;;;;;;;;29.34;35.72;100887.71;105305;1300;74687;-79
2022/08/03 09:41:42;;;;;;;;;;;;;;;29.34;35.77;100888.40;105222;1300;61122;-78
2022/08/03 09:44:07;;;;;;;;;;;;;;;29.34;35.75;100879.91;105095;1299;61403;-78
2022/08/03 09:46:49;;;;;;;;;;;;;;;29.34;35.82;100877.60;105063;1300;61299;-79
2022/08/03 09:49:14;;;;;;;;;;;;;;;29.34;35.63;100873.76;105204;1299;75792;-79
2022/08/03 09:51:40;;;;;;;;;;;;;;;29.34;35.91;100873.75;105185;1298;61268;-79
2022/08/03 09:54:05;;;;;;;;;;;;;;;29.34;35.76;100876.30;105250;1299;61306;-79
2022/08/03 09:56:44;;;;;;;;;;;;;;;29.34;35.85;100872.64;105228;1300;61390;-79
2022/08/03 09:59:10;;;;;;;;;;;;;;;29.33;35.91;100871.10;105266;1298;75659;-81
2022/08/03 10:01:36;;;;;;;;;;;;;;;29.34;35.81;100869.91;105276;1300;61266;-81
2022/08/03 10:04:01;;;;;;;;;;;;;;;29.34;35.89;100868.99;105321;1300;59686;-81
2022/08/03 10:06:27;;;;;;;;;;;;;;;29.35;35.82;100867.49;105299;1300;62029;-79
2022/08/03 10:09:09;;;;;;;;;;;;;;;29.35;35.85;100862.39;105245;1300;61293;-79
2022/08/03 10:11:35;;;;;;;;;;;;;;;29.35;35.88;100862.37;105075;1300;61282;-79
2022/08/03 10:14:03;;;;;;;;;;;;;;;29.35;35.92;100859.99;105268;1300;61279;-79
2022/08/03 10:16:33;;;;;;;;;;;;;;;29.36;35.72;100860.85;105112;1300;72623;-79
2022/08/03 10:18:59;;;;;;;;;;;;;;;29.36;35.65;100860.88;104803;1300;75723;-80
2022/08/03 10:21:24;;;;;;;;;;;;;;;29.36;35.77;100862.98;104919;1299;61291;-79
2022/08/03 10:23:50;;;;;;;;;;;;;;;29.36;35.74;100861.91;105000;1299;61359;-79
2022/08/03 10:26:15;;;;;;;;;;;;;;;29.37;35.63;100857.98;105233;1299;61326;-79
2022/08/03 10:28:44;;;;;;;;;;;;;;;29.37;35.92;100851.27;105230;1299;61249;-79
2022/08/03 10:31:10;;;;;;;;;;;;;;;29.37;35.84;100848.34;105210;1299;75832;-79
2022/08/03 10:33:41;;;;;;;;;;;;;;;29.38;35.50;100848.68;105226;1300;61332;-79
2022/08/03 10:36:07;;;;;;;;;;;;;;;29.37;35.81;100845.62;105242;1300;61284;-79
2022/08/03 10:38:34;;;;;;;;;;;;;;;29.37;35.66;100845.41;105165;1299;61391;-79
2022/08/03 10:41:00;;;;;;;;;;;;;;;29.38;35.75;100846.14;105166;1300;75591;-79
2022/08/03 10:43:43;;;;;;;;;;;;;;;29.37;35.60;100841.67;105191;1300;61261;-79
2022/08/03 10:46:08;;;;;;;;;;;;;;;29.37;35.86;100840.79;105268;1300;61277;-79
2022/08/03 10:48:34;;;;;;;;;;;;;;;29.37;35.74;100837.16;105313;1300;61358;-79
2022/08/03 10:50:59;;;;;;;;;;;;;;;29.37;35.90;100837.20;105202;1298;61215;-79
2022/08/03 10:53:35;;;;;;;;;;;;;;;29.37;35.89;100840.21;105232;1298;61276;-79
2022/08/03 10:58:45;;;;;;;;;;;;;;;29.36;35.76;100839.05;105205;1300;72820;-79
2022/08/03 11:01:11;;;;;;;;;;;;;;;29.36;35.79;100839.38;105261;1299;61354;-79
2022/08/03 11:03:49;;;;;;;;;;;;;;;29.36;35.78;100831.96;105293;1299;61233;-79
2022/08/03 11:06:19;;;;;;;;;;;;;;;29.37;35.98;100829.55;105135;1299;61314;-79
2022/08/03 11:08:45;;;;;;;;;;;;;;;29.37;35.76;100830.48;105433;1299;72608;-79
2022/08/03 11:11:17;;;;;;;;;;;;;;;29.37;35.68;100823.52;105155;1300;61323;-79
2022/08/03 11:13:55;;;;;;;;;;;;;;;29.37;35.89;100816.80;105249;1300;61241;-79
2022/08/03 11:16:22;;;;;;;;;;;;;;;29.37;35.76;100819.14;105197;1299;61141;-79
2022/08/03 11:18:59;;;;;;;;;;;;;;;29.38;35.84;100815.85;105038;1300;61377;-79
2022/08/03 11:21:43;;;;;;;;;;;;;;;29.38;35.77;100809.53;105192;1300;74904;-79
2022/08/03 11:24:09;;;;;;;;;;;;;;;29.38;35.69;100803.88;105282;1300;61373;-79
2022/08/03 11:26:34;;;;;;;;;;;;;;;29.38;35.77;100803.31;105229;1300;61223;-79
2022/08/03 11:29:19;;;;;;;;;;;;;;;29.38;35.73;100801.34;104984;1300;61701;-79
2022/08/03 11:31:45;;;;;;;;;;;;;;;29.38;35.95;100800.39;105032;1299;75654;-79
2022/08/03 11:34:12;;;;;;;;;;;;;;;29.38;35.72;100791.35;105193;1299;61249;-79
2022/08/03 11:36:57;;;;;;;;;;;;;;;29.38;35.84;100794.20;105219;1300;61191;-79
2022/08/03 11:39:36;;;;;;;;;;;;;;;29.38;35.72;100796.91;105257;1299;73345;-79
2022/08/03 11:42:22;;;;;;;;;;;;;;;29.39;35.65;100791.61;105297;1299;74564;-81
2022/08/03 11:44:51;;;;;;;;;;;;;;;29.39;35.68;100791.39;105370;1299;61424;-81
2022/08/03 11:47:16;;;;;;;;;;;;;;;29.39;35.81;100791.59;105131;1300;62046;-81
2022/08/03 11:49:47;;;;;;;;;;;;;;;29.40;35.65;100787.91;105346;1299;61269;-81
2022/08/03 11:52:14;;;;;;;;;;;;;;;29.39;35.83;100783.40;105325;1299;74900;-81
2022/08/03 11:54:39;;;;;;;;;;;;;;;29.40;35.70;100784.83;105270;1300;61262;-81
2022/08/03 11:57:05;;;;;;;;;;;;;;;29.40;35.89;100785.55;105259;1300;61276;-81
2022/08/03 11:59:34;;;;;;;;;;;;;;;29.40;35.68;100779.70;105178;1303;61226;-81
2022/08/03 12:02:06;;;;;;;;;;;;;;;29.40;35.65;100776.77;105332;1299;74567;-81
2022/08/03 12:04:47;;;;;;;;;;;;;;;29.40;35.51;100771.16;105293;1300;61157;-81
2022/08/03 12:07:13;;;;;;;;;;;;;;;29.41;35.49;100764.44;105317;1299;61962;-81
2022/08/03 12:09:40;;;;;;;;;;;;;;;29.41;35.69;100759.51;105336;1299;61266;-81
2022/08/03 12:12:06;;;;;;;;;;;;;;;29.40;35.58;100757.74;105342;1299;61307;-81
2022/08/03 12:14:31;;;;;;;;;;;;;;;29.41;35.77;100747.92;105252;1299;61251;-81
2022/08/03 12:16:57;;;;;;;;;;;;;;;29.41;35.54;100746.12;105303;1299;61247;-81
2022/08/03 12:19:22;;;;;;;;;;;;;;;29.41;35.43;100745.91;105318;1299;61307;-78
2022/08/03 12:21:49;;;;;;;;;;;;;;;29.41;35.58;100749.48;105247;1300;61259;-80
2022/08/03 12:24:14;;;;;;;;;;;;;;;29.41;35.77;100747.30;105294;1299;61242;-80
2022/08/03 12:26:43;;;;;;;;;;;;;;;29.42;35.52;100740.91;105316;1299;61392;-81
2022/08/03 12:29:21;;;;;;;;;;;;;;;29.42;35.51;100746.52;105253;1300;61261;-79
2022/08/03 12:31:46;;;;;;;;;;;;;;;29.42;35.51;100744.31;105289;1299;72848;-80
2022/08/03 12:34:12;;;;;;;;;;;;;;;29.42;35.59;100736.92;105265;1299;61342;-80